createdAt,value
2022-10-25T00:01:26.265Z,98272.16
2022-10-25T00:03:30.682Z,98277.88
2022-10-25T00:05:33.725Z,98271.06
2022-10-25T00:07:36.741Z,98270.34
2022-10-25T00:09:39.678Z,98270.34
2022-10-25T00:11:43.334Z,98270.34
2022-10-25T00:13:46.354Z,98270.34
2022-10-25T00:15:49.588Z,98263.31
2022-10-25T00:17:52.871Z,98270.47
2022-10-25T00:19:57.203Z,98267.97
2022-10-25T00:22:00.547Z,98272.22
2022-10-25T00:24:04.787Z,98268.91
2022-10-25T00:26:09.279Z,98270.94
2022-10-25T00:28:12.489Z,98267.91
2022-10-25T00:30:16.045Z,98271.72
2022-10-25T00:32:19.049Z,98273.09
2022-10-25T00:34:22.106Z,98268.06
2022-10-25T00:36:27.784Z,98271.03
2022-10-25T00:38:31.591Z,98278.28
2022-10-25T00:40:35.138Z,98273.28
2022-10-25T00:42:38.171Z,98264.59
2022-10-25T00:44:53.540Z,98269.09
2022-10-25T00:46:56.738Z,98265.06
2022-10-25T00:49:03.540Z,98263.72
2022-10-25T00:51:07.076Z,98274.16
2022-10-25T00:53:15.174Z,98266.66
2022-10-25T00:55:20.429Z,98270.34
2022-10-25T00:57:27.408Z,98268.66
2022-10-25T00:59:30.857Z,98269.13
2022-10-25T01:01:34.113Z,98264.81
2022-10-25T01:03:38.481Z,98262.19
2022-10-25T01:05:41.772Z,98261.50
2022-10-25T01:07:45.750Z,98264.00
2022-10-25T01:09:51.210Z,98272.66
2022-10-25T01:11:54.461Z,98271.84
2022-10-25T01:13:57.754Z,98275.28
2022-10-25T01:16:06.989Z,98284.22
2022-10-25T01:18:15.595Z,98266.94
2022-10-25T01:20:48.755Z,98275.00
2022-10-25T01:22:55.546Z,98277.03
2022-10-25T01:25:25.396Z,98277.94
2022-10-25T01:27:47.149Z,98271.03
2022-10-25T01:30:14.592Z,98276.38
2022-10-25T01:32:22.401Z,98273.78
2022-10-25T01:34:28.002Z,98274.72
2022-10-25T01:36:38.138Z,98267.81
2022-10-25T01:38:45.901Z,98272.34
2022-10-25T01:40:54.159Z,98267.22
2022-10-25T01:43:02.264Z,98259.38
2022-10-25T01:45:09.915Z,98268.38
2022-10-25T01:47:15.122Z,98270.28
2022-10-25T01:49:24.998Z,98263.81
2022-10-25T01:51:29.020Z,98270.09
2022-10-25T01:53:32.027Z,98270.22
2022-10-25T01:55:41.393Z,98273.88
2022-10-25T01:57:59.684Z,98273.88
2022-10-25T02:00:09.299Z,98266.97
2022-10-25T02:02:23.669Z,98280.25
2022-10-25T02:04:34.920Z,98268.84
2022-10-25T02:06:44.093Z,98289.16
2022-10-25T02:08:49.634Z,98277.84
2022-10-25T02:10:57.066Z,98282.84
2022-10-25T02:13:03.953Z,98280.13
2022-10-25T02:15:11.315Z,98277.53
2022-10-25T02:17:18.781Z,98274.91
2022-10-25T02:19:25.132Z,98276.91
2022-10-25T02:21:32.024Z,98276.19
2022-10-25T02:23:35.923Z,98272.50
2022-10-25T02:25:41.919Z,98265.63
2022-10-25T02:27:46.021Z,98269.06
2022-10-25T02:29:49.685Z,98266.47
2022-10-25T02:31:52.831Z,98265.00
2022-10-25T02:33:56.106Z,98256.53
2022-10-25T02:36:09.818Z,98264.38
2022-10-25T02:38:14.102Z,98267.81
2022-10-25T02:40:17.303Z,98264.38
2022-10-25T02:46:15.515Z,98265.53
2022-10-25T02:48:18.593Z,98274.44
2022-10-25T02:50:21.557Z,98270.97
2022-10-25T02:52:24.568Z,98266.81
2022-10-25T02:54:28.977Z,98262.63
2022-10-25T02:56:32.022Z,98272.25
2022-10-25T02:58:38.080Z,98263.66
2022-10-25T03:00:41.267Z,98256.78
2022-10-25T03:02:44.634Z,98261.31
2022-10-25T03:04:47.979Z,98264.84
2022-10-25T03:06:50.982Z,98259.63
2022-10-25T03:08:54.023Z,98260.56
2022-10-25T03:10:58.532Z,98263.28
2022-10-25T03:13:01.624Z,98258.25
2022-10-25T03:15:05.027Z,98260.75
2022-10-25T03:17:08.151Z,98260.56
2022-10-25T03:19:11.191Z,98262.66
2022-10-25T03:21:14.167Z,98262.66
2022-10-25T03:23:17.779Z,98262.44
2022-10-25T03:25:20.858Z,98265.06
2022-10-25T03:27:25.245Z,98267.56
2022-10-25T03:29:28.423Z,98273.50
2022-10-25T03:31:31.414Z,98263.06
2022-10-25T03:33:34.404Z,98271.00
2022-10-25T03:35:37.592Z,98272.78
2022-10-25T03:37:40.605Z,98272.91
2022-10-25T03:39:43.571Z,98278.13
2022-10-25T03:41:46.508Z,98287.75
2022-10-25T03:43:50.885Z,98275.00
2022-10-25T03:45:53.851Z,98276.53
2022-10-25T03:47:56.869Z,98275.94
2022-10-25T03:49:59.851Z,98278.75
2022-10-25T03:52:05.084Z,98274.47
2022-10-25T03:54:08.188Z,98285.00
2022-10-25T03:56:11.214Z,98284.19
2022-10-25T03:58:14.242Z,98289.63
2022-10-25T04:00:18.875Z,98284.41
2022-10-25T04:02:21.915Z,98284.41
2022-10-25T04:04:24.943Z,98297.47
2022-10-25T04:06:27.906Z,98286.25
2022-10-25T04:08:30.917Z,98293.16
2022-10-25T04:10:34.011Z,98288.97
2022-10-25T04:12:37.037Z,98285.59
2022-10-25T04:14:40.102Z,98289.19
2022-10-25T04:16:44.493Z,98299.72
2022-10-25T04:18:47.709Z,98290.44
2022-10-25T04:20:50.659Z,98286.22
2022-10-25T04:22:57.225Z,98289.72
2022-10-25T04:25:00.236Z,98288.03
2022-10-25T04:27:03.350Z,98278.75
2022-10-25T04:29:13.538Z,98290.13
2022-10-25T04:31:16.870Z,98286.88
2022-10-25T04:33:21.710Z,98289.50
2022-10-25T04:35:27.602Z,98295.53
2022-10-25T04:37:30.693Z,98294.94
2022-10-25T04:39:33.642Z,98293.34
2022-10-25T04:41:36.670Z,98306.41
2022-10-25T04:43:39.703Z,98302.13
2022-10-25T04:45:42.749Z,98298.56
2022-10-25T04:47:45.751Z,98305.69
2022-10-25T04:49:50.082Z,98304.81
2022-10-25T04:51:52.974Z,98301.50
2022-10-25T04:53:56.194Z,98303.38
2022-10-25T04:55:59.681Z,98304.41
2022-10-25T04:58:02.628Z,98312.13
2022-10-25T05:00:06.354Z,98306.09
2022-10-25T05:02:09.356Z,98308.81
2022-10-25T05:04:12.343Z,98308.91
2022-10-25T05:06:19.083Z,98311.72
2022-10-25T05:08:22.105Z,98314.31
2022-10-25T05:10:25.205Z,98306.69
2022-10-25T05:12:28.224Z,98313.78
2022-10-25T05:14:31.215Z,98319.84
2022-10-25T05:16:35.185Z,98316.38
2022-10-25T05:18:38.193Z,98313.97
2022-10-25T05:20:41.244Z,98315.03
2022-10-25T05:22:46.017Z,98317.75
2022-10-25T05:24:49.175Z,98321.28
2022-10-25T05:26:52.175Z,98322.09
2022-10-25T05:28:56.893Z,98317.94
2022-10-25T05:31:04.221Z,98315.66
2022-10-25T05:33:07.236Z,98320.97
2022-10-25T05:35:10.375Z,98321.88
2022-10-25T05:37:13.326Z,98318.34
2022-10-25T05:39:17.765Z,98313.22
2022-10-25T05:41:20.767Z,98316.66
2022-10-25T05:43:23.958Z,98316.78
2022-10-25T05:45:27.005Z,98316.97
2022-10-25T05:47:30.041Z,98311.13
2022-10-25T05:49:34.172Z,98322.38
2022-10-25T05:51:37.683Z,98325.09
2022-10-25T05:53:44.467Z,98321.56
2022-10-25T05:55:48.789Z,98325.94
2022-10-25T05:57:52.680Z,98334.59
2022-10-25T05:59:55.892Z,98334.69
2022-10-25T06:01:59.018Z,98340.84
2022-10-25T06:04:02.080Z,98333.13
2022-10-25T06:06:06.919Z,98331.47
2022-10-25T06:08:09.916Z,98333.97
2022-10-25T06:10:12.851Z,98343.34
2022-10-25T06:12:17.197Z,98354.66
2022-10-25T06:14:20.171Z,98348.38
2022-10-25T06:16:23.576Z,98350.78
2022-10-25T06:18:26.542Z,98355.81
2022-10-25T06:20:29.671Z,98352.38
2022-10-25T06:22:32.772Z,98364.50
2022-10-25T06:24:35.855Z,98366.25
2022-10-25T06:26:38.921Z,98370.53
2022-10-25T06:28:43.623Z,98369.59
2022-10-25T06:30:46.542Z,98369.50
2022-10-25T06:32:49.847Z,98377.88
2022-10-25T06:34:52.993Z,98382.03
2022-10-25T06:36:55.916Z,98389.56
2022-10-25T06:39:05.269Z,98392.94
2022-10-25T06:41:13.723Z,98395.03
2022-10-25T06:43:16.696Z,98403.50
2022-10-25T06:45:21.023Z,98396.28
2022-10-25T06:47:24.025Z,98404.88
2022-10-25T06:49:30.580Z,98403.63
2022-10-25T06:51:34.445Z,98399.06
2022-10-25T06:53:37.872Z,98392.66
2022-10-25T06:55:42.369Z,98407.09
2022-10-25T06:57:45.437Z,98400.00
2022-10-25T06:59:48.537Z,98406.69
2022-10-25T07:01:53.456Z,98418.13
2022-10-25T07:03:56.715Z,98427.13
2022-10-25T07:06:00.650Z,98426.50
2022-10-25T07:08:03.743Z,98427.97
2022-10-25T07:10:07.367Z,98419.53
2022-10-25T07:12:12.721Z,98424.00
2022-10-25T07:14:16.081Z,98422.13
2022-10-25T07:16:20.875Z,98432.16
2022-10-25T07:18:25.367Z,98436.97
2022-10-25T07:20:30.955Z,98432.75
2022-10-25T07:22:34.143Z,98435.13
2022-10-25T07:24:37.141Z,98439.38
2022-10-25T07:26:41.787Z,98443.09
2022-10-25T07:28:46.318Z,98442.28
2022-10-25T07:30:49.550Z,98448.06
2022-10-25T07:32:52.618Z,98447.19
2022-10-25T07:37:00.983Z,98467.31
2022-10-25T07:39:04.281Z,98463.44
2022-10-25T07:41:07.778Z,98469.41
2022-10-25T07:43:11.162Z,98470.75
2022-10-25T07:45:16.231Z,98471.47
2022-10-25T07:47:21.846Z,98480.03
2022-10-25T07:49:24.974Z,98466.56
2022-10-25T07:51:29.579Z,98468.59
2022-10-25T07:53:32.618Z,98476.81
2022-10-25T07:55:35.642Z,98483.41
2022-10-25T07:57:38.797Z,98489.72
2022-10-25T07:59:41.755Z,98484.13
2022-10-25T08:01:44.813Z,98487.56
2022-10-25T08:03:47.952Z,98493.28
2022-10-25T08:05:50.957Z,98487.28
2022-10-25T08:07:55.256Z,98489.94
2022-10-25T08:09:58.262Z,98494.56
2022-10-25T08:12:01.239Z,98487.50
2022-10-25T08:14:04.276Z,98488.03
2022-10-25T08:16:11.240Z,98483.50
2022-10-25T08:18:14.231Z,98499.75
2022-10-25T08:20:17.363Z,98492.25
2022-10-25T08:22:20.406Z,98494.38
2022-10-25T08:24:24.814Z,98486.97
2022-10-25T08:26:30.145Z,98475.06
2022-10-25T08:28:35.298Z,98481.59
2022-10-25T08:30:38.278Z,98477.59
2022-10-25T08:32:41.320Z,98487.22
2022-10-25T08:34:44.365Z,98477.00
2022-10-25T08:36:49.674Z,98477.88
2022-10-25T08:38:52.689Z,98479.00
2022-10-25T08:41:03.261Z,98480.13
2022-10-25T08:43:11.175Z,98480.31
2022-10-25T08:45:19.885Z,98481.28
2022-10-25T08:47:27.110Z,98492.16
2022-10-25T08:49:34.647Z,98494.25
2022-10-25T08:51:39.842Z,98485.22
2022-10-25T08:53:47.813Z,98496.09
2022-10-25T08:56:15.264Z,98491.81
2022-10-25T08:58:18.698Z,98495.03
2022-10-25T09:00:24.204Z,98488.22
2022-10-25T09:02:34.653Z,98494.50
2022-10-25T09:04:37.823Z,98492.81
2022-10-25T09:06:43.275Z,98483.94
2022-10-25T09:08:59.622Z,98492.53
2022-10-25T09:11:07.933Z,98496.28
2022-10-25T09:13:19.286Z,98501.56
2022-10-25T09:15:33.306Z,98494.34
2022-10-25T09:17:43.039Z,98499.47
2022-10-25T09:19:57.858Z,98501.44
2022-10-25T09:22:02.290Z,98501.59
2022-10-25T09:24:11.712Z,98501.97
2022-10-25T09:26:19.265Z,98498.09
2022-10-25T09:28:26.777Z,98495.44
2022-10-25T09:30:31.745Z,98503.59
2022-10-25T09:32:38.791Z,98499.72
2022-10-25T09:34:41.912Z,98501.50
2022-10-25T09:36:47.012Z,98503.31
2022-10-25T09:38:53.219Z,98502.19
2022-10-25T09:40:58.925Z,98492.91
2022-10-25T09:45:24.142Z,98493.47
2022-10-25T09:47:41.453Z,98491.06
2022-10-25T09:49:52.097Z,98493.56
2022-10-25T09:52:00.703Z,98493.97
2022-10-25T09:54:11.941Z,98487.44
2022-10-25T09:56:17.201Z,98478.94
2022-10-25T09:58:22.165Z,98486.56
2022-10-25T10:00:26.849Z,98487.25
2022-10-25T10:02:29.876Z,98493.53
2022-10-25T10:04:36.273Z,98484.41
2022-10-25T10:06:40.920Z,98483.53
2022-10-25T10:08:49.080Z,98488.09
2022-10-25T10:10:57.398Z,98475.19
2022-10-25T10:13:05.020Z,98492.56
2022-10-25T10:15:14.145Z,98485.59
2022-10-25T10:17:21.291Z,98493.53
2022-10-25T10:19:29.936Z,98492.91
2022-10-25T10:21:42.960Z,98495.13
2022-10-25T10:23:50.703Z,98488.72
2022-10-25T10:25:53.878Z,98492.75
2022-10-25T10:27:58.186Z,98489.41
2022-10-25T10:30:03.240Z,98484.03
2022-10-25T10:32:10.180Z,98478.19
2022-10-25T10:34:28.532Z,98477.06
2022-10-25T10:36:33.584Z,98480.84
2022-10-25T10:38:39.361Z,98477.66
2022-10-25T10:40:44.001Z,98477.97
2022-10-25T10:42:49.886Z,98475.47
2022-10-25T10:45:16.614Z,98465.03
2022-10-25T10:47:22.538Z,98460.84
2022-10-25T10:49:36.143Z,98464.31
2022-10-25T10:51:45.031Z,98470.16
2022-10-25T10:53:48.456Z,98465.03
2022-10-25T10:55:52.936Z,98454.56
2022-10-25T10:57:57.377Z,98458.84
2022-10-25T11:00:01.488Z,98452.88
2022-10-25T11:02:24.117Z,98452.09
2022-10-25T11:04:28.704Z,98451.84
2022-10-25T11:06:33.254Z,98447.69
2022-10-25T11:08:36.240Z,98445.16
2022-10-25T11:10:40.224Z,98448.19
2022-10-25T11:12:43.738Z,98439.28
2022-10-25T11:14:46.840Z,98441.53
2022-10-25T11:16:54.533Z,98448.22
2022-10-25T11:19:10.134Z,98433.75
2022-10-25T11:21:22.504Z,98436.63
2022-10-25T11:23:28.914Z,98439.81
2022-10-25T11:25:35.299Z,98438.31
2022-10-25T11:27:48.156Z,98435.09
2022-10-25T11:30:01.121Z,98439.72
2022-10-25T11:32:18.736Z,98434.56
2022-10-25T11:34:27.124Z,98423.47
2022-10-25T11:36:52.676Z,98424.97
2022-10-25T11:39:04.445Z,98431.66
2022-10-25T11:41:17.369Z,98434.91
2022-10-25T11:43:35.357Z,98429.69
2022-10-25T11:45:42.610Z,98432.72
2022-10-25T11:47:52.780Z,98428.88
2022-10-25T11:50:02.351Z,98439.75
2022-10-25T11:52:28.545Z,98430.09
2022-10-25T11:54:36.786Z,98436.06
2022-10-25T11:56:45.951Z,98424.81
2022-10-25T11:58:55.259Z,98415.59
2022-10-25T12:01:04.204Z,98420.28
2022-10-25T12:03:20.533Z,98420.00
2022-10-25T12:05:30.749Z,98423.59
2022-10-25T12:07:38.606Z,98421.25
2022-10-25T12:09:47.767Z,98431.16
2022-10-25T12:12:01.675Z,98445.34
2022-10-25T12:14:07.307Z,98433.78
2022-10-25T12:16:12.323Z,98424.91
2022-10-25T12:18:20.582Z,98431.75
2022-10-25T12:20:27.892Z,98425.41
2022-10-25T12:22:38.216Z,98434.28
2022-10-25T12:24:46.466Z,98428.63
2022-10-25T12:26:50.987Z,98431.25
2022-10-25T12:28:54.123Z,98440.97
2022-10-25T12:31:01.004Z,98427.63
2022-10-25T12:33:12.205Z,98427.91
2022-10-25T12:35:21.516Z,98424.59
2022-10-25T12:37:29.849Z,98428.19
2022-10-25T12:39:40.639Z,98420.13
2022-10-25T12:41:45.080Z,98418.56
2022-10-25T12:44:00.226Z,98416.31
2022-10-25T12:46:37.003Z,98418.97
2022-10-25T12:49:03.170Z,98403.97
2022-10-25T12:51:19.122Z,98400.56
2022-10-25T12:53:46.701Z,98402.97
2022-10-25T12:55:57.047Z,98400.38
2022-10-25T12:58:09.867Z,98403.44
2022-10-25T13:00:14.842Z,98391.06
2022-10-25T13:02:55.458Z,98393.84
2022-10-25T13:05:24.236Z,98392.59
2022-10-25T13:07:27.764Z,98387.53
2022-10-25T13:09:33.070Z,98389.88
2022-10-25T13:11:39.586Z,98392.09
2022-10-25T13:13:48.790Z,98392.09
2022-10-25T13:15:52.824Z,98387.63
2022-10-25T13:18:05.726Z,98391.78
2022-10-25T13:20:46.398Z,98388.47
2022-10-25T13:22:52.396Z,98384.75
2022-10-25T13:24:56.003Z,98380.63
2022-10-25T13:27:22.125Z,98380.06
2022-10-25T13:29:50.211Z,98391.47
2022-10-25T13:31:59.880Z,98377.56
2022-10-25T13:34:30.899Z,98387.00
2022-10-25T13:36:47.491Z,98384.59
2022-10-25T13:39:04.541Z,98385.69
2022-10-25T13:41:13.482Z,98383.44
2022-10-25T13:43:20.697Z,98372.41
2022-10-25T13:45:33.393Z,98373.69
2022-10-25T13:47:39.010Z,98374.13
2022-10-25T13:49:43.824Z,98378.44
2022-10-25T13:51:47.200Z,98375.34
2022-10-25T13:53:52.680Z,98381.00
2022-10-25T13:56:01.146Z,98375.44
2022-10-25T13:58:57.423Z,98374.16
2022-10-25T14:01:55.940Z,98369.53
2022-10-25T14:04:08.712Z,98368.28
2022-10-25T14:06:23.801Z,98370.91
2022-10-25T14:08:28.940Z,98376.50
2022-10-25T14:10:36.476Z,98366.09
2022-10-25T14:12:41.089Z,98374.16
2022-10-25T14:14:48.383Z,98368.72
2022-10-25T14:17:10.450Z,98364.97
2022-10-25T14:19:16.657Z,98363.97
2022-10-25T14:21:20.552Z,98361.16
2022-10-25T14:23:25.367Z,98358.38
2022-10-25T14:25:34.301Z,98353.25
2022-10-25T14:27:38.380Z,98352.56
2022-10-25T14:29:41.362Z,98347.28
2022-10-25T14:31:44.523Z,98347.44
2022-10-25T14:33:53.636Z,98350.06
2022-10-25T14:35:58.576Z,98355.34
2022-10-25T14:38:01.972Z,98354.38
2022-10-25T14:40:16.427Z,98357.69
2022-10-25T14:42:19.545Z,98357.41
2022-10-25T14:44:25.337Z,98351.19
2022-10-25T14:46:30.269Z,98353.81
2022-10-25T14:48:33.679Z,98345.03
2022-10-25T14:50:39.915Z,98342.50
2022-10-25T14:52:45.025Z,98329.59
2022-10-25T14:54:54.750Z,98337.97
2022-10-25T14:57:00.010Z,98334.94
2022-10-25T14:59:04.238Z,98331.78
2022-10-25T15:01:07.969Z,98333.06
2022-10-25T15:03:12.662Z,98347.25
2022-10-25T15:05:20.222Z,98335.03
2022-10-25T15:07:29.094Z,98336.66
2022-10-25T15:09:48.699Z,98327.91
2022-10-25T15:12:06.828Z,98333.06
2022-10-25T15:14:17.006Z,98327.91
2022-10-25T15:16:32.341Z,98331.38
2022-10-25T15:18:38.154Z,98328.75
2022-10-25T15:20:41.576Z,98328.06
2022-10-25T15:22:48.155Z,98320.97
2022-10-25T15:24:51.440Z,98327.41
2022-10-25T15:26:59.481Z,98329.47
2022-10-25T15:29:02.952Z,98323.53
2022-10-25T15:31:07.883Z,98330.94
2022-10-25T15:33:14.638Z,98328.44
2022-10-25T15:35:23.474Z,98326.09
2022-10-25T15:37:27.789Z,98323.06
2022-10-25T15:39:32.942Z,98326.16
2022-10-25T15:41:36.553Z,98332.03
2022-10-25T15:43:39.584Z,98328.00
2022-10-25T15:45:42.897Z,98331.91
2022-10-25T15:47:47.337Z,98320.13
2022-10-25T15:49:52.676Z,98320.56
2022-10-25T15:51:56.959Z,98319.34
2022-10-25T15:54:00.220Z,98318.41
2022-10-25T15:56:04.871Z,98320.09
2022-10-25T15:58:09.898Z,98319.69
2022-10-25T16:00:15.650Z,98313.16
2022-10-25T16:02:22.026Z,98315.56
2022-10-25T16:04:25.093Z,98313.63
2022-10-25T16:06:28.069Z,98315.19
2022-10-25T16:08:31.442Z,98316.31
2022-10-25T16:10:34.825Z,98319.38
2022-10-25T16:12:39.599Z,98315.53
2022-10-25T16:14:42.700Z,98315.13
2022-10-25T16:16:46.071Z,98316.38
2022-10-25T16:18:49.094Z,98321.25
2022-10-25T16:20:52.998Z,98320.97
2022-10-25T16:22:56.783Z,98316.25
2022-10-25T16:24:59.827Z,98320.16
2022-10-25T16:27:02.975Z,98315.16
2022-10-25T16:29:07.476Z,98313.72
2022-10-25T16:31:10.430Z,98315.81
2022-10-25T16:33:13.545Z,98319.00
2022-10-25T16:35:18.787Z,98314.97
2022-10-25T16:37:21.997Z,98309.97
2022-10-25T16:39:25.052Z,98311.53
2022-10-25T16:41:29.835Z,98309.44
2022-10-25T16:43:33.820Z,98308.31
2022-10-25T16:45:38.561Z,98296.81
2022-10-25T16:47:41.685Z,98298.72
2022-10-25T16:49:44.777Z,98302.78
2022-10-25T16:51:48.782Z,98297.78
2022-10-25T16:53:52.045Z,98301.63
2022-10-25T16:55:56.105Z,98300.50
2022-10-25T16:57:59.663Z,98310.34
2022-10-25T17:00:02.763Z,98303.00
2022-10-25T17:02:10.889Z,98309.47
2022-10-25T17:04:14.498Z,98296.03
2022-10-25T17:06:39.734Z,98299.91
2022-10-25T17:08:40.922Z,98303.91
2022-10-25T17:10:46.066Z,98299.16
2022-10-25T17:12:50.665Z,98302.44
2022-10-25T17:14:53.987Z,98302.03
2022-10-25T17:17:02.232Z,98293.53
2022-10-25T17:19:07.681Z,98293.25
2022-10-25T17:21:12.745Z,98298.91
2022-10-25T17:23:15.675Z,98301.09
2022-10-25T17:25:18.694Z,98290.16
2022-10-25T17:27:21.711Z,98294.00
2022-10-25T17:29:24.738Z,98285.69
2022-10-25T17:31:28.272Z,98286.91
2022-10-25T17:33:32.726Z,98285.47
2022-10-25T17:35:41.999Z,98278.00
2022-10-25T17:37:47.130Z,98272.28
2022-10-25T17:39:50.494Z,98288.34
2022-10-25T17:41:53.503Z,98280.84
2022-10-25T17:43:57.180Z,98275.00
2022-10-25T17:46:01.244Z,98277.06
2022-10-25T17:48:04.864Z,98277.34
2022-10-25T17:50:08.405Z,98274.09
2022-10-25T17:52:13.232Z,98275.22
2022-10-25T17:54:16.968Z,98284.31
2022-10-25T17:56:20.579Z,98279.56
2022-10-25T17:58:24.050Z,98276.38
2022-10-25T18:00:27.094Z,98275.78
2022-10-25T18:02:30.232Z,98276.97
2022-10-25T18:04:52.967Z,98284.16
2022-10-25T18:06:56.524Z,98285.38
2022-10-25T18:09:02.926Z,98290.88
2022-10-25T18:11:09.746Z,98290.19
2022-10-25T18:13:12.729Z,98279.06
2022-10-25T18:15:15.971Z,98289.00
2022-10-25T18:17:18.975Z,98275.44
2022-10-25T18:19:22.709Z,98274.94
2022-10-25T18:21:25.886Z,98277.88
2022-10-25T18:23:28.885Z,98275.50
2022-10-25T18:25:33.323Z,98283.63
2022-10-25T18:27:36.393Z,98281.13
2022-10-25T18:29:39.953Z,98284.94
2022-10-25T18:31:42.967Z,98285.19
2022-10-25T18:33:46.237Z,98288.19
2022-10-25T18:35:49.320Z,98278.75
2022-10-25T18:37:52.402Z,98278.88
2022-10-25T18:39:55.529Z,98277.22
2022-10-25T18:41:59.958Z,98279.97
2022-10-25T18:44:03.482Z,98274.00
2022-10-25T18:46:06.820Z,98269.97
2022-10-25T18:48:09.847Z,98277.00
2022-10-25T18:50:12.876Z,98271.16
2022-10-25T18:52:15.964Z,98273.09
2022-10-25T18:54:19.468Z,98268.09
2022-10-25T18:56:23.791Z,98264.03
2022-10-25T18:58:28.239Z,98270.38
2022-10-25T19:00:31.489Z,98280.16
2022-10-25T19:02:37.809Z,98276.13
2022-10-25T19:04:44.452Z,98273.75
2022-10-25T19:06:47.716Z,98277.31
2022-10-25T19:08:50.769Z,98268.00
2022-10-25T19:10:53.786Z,98269.00
2022-10-25T19:12:56.767Z,98272.56
2022-10-25T19:15:02.977Z,98272.78
2022-10-25T19:17:06.069Z,98269.47
2022-10-25T19:19:11.681Z,98269.59
2022-10-25T19:21:17.090Z,98265.28
2022-10-25T19:23:20.113Z,98264.72
2022-10-25T19:25:24.025Z,98263.13
2022-10-25T19:27:28.971Z,98262.53
2022-10-25T19:29:33.290Z,98257.66
2022-10-25T19:31:37.859Z,98257.56
2022-10-25T19:33:41.207Z,98252.78
2022-10-25T19:35:44.269Z,98252.19
2022-10-25T19:37:48.030Z,98249.91
2022-10-25T19:39:54.398Z,98258.03
2022-10-25T19:42:00.281Z,98243.28
2022-10-25T19:44:03.332Z,98254.81
2022-10-25T19:46:07.880Z,98250.41
2022-10-25T19:48:12.471Z,98248.75
2022-10-25T19:50:15.520Z,98250.66
2022-10-25T19:52:18.617Z,98258.78
2022-10-25T19:54:22.743Z,98249.22
2022-10-25T19:56:25.814Z,98251.16
2022-10-25T19:58:29.496Z,98249.47
2022-10-25T20:00:32.887Z,98250.41
2022-10-25T20:02:36.205Z,98242.66
2022-10-25T20:04:40.989Z,98241.00
2022-10-25T20:06:44.232Z,98244.56
2022-10-25T20:08:48.065Z,98245.53
2022-10-25T20:10:52.121Z,98250.75
2022-10-25T20:12:55.442Z,98242.06
2022-10-25T20:14:58.765Z,98247.44
2022-10-25T20:17:02.033Z,98242.19
2022-10-25T20:19:05.439Z,98245.75
2022-10-25T20:21:11.739Z,98242.31
2022-10-25T20:23:14.925Z,98244.09
2022-10-25T20:25:18.211Z,98243.25
2022-10-25T20:27:21.277Z,98240.63
2022-10-25T20:29:26.246Z,98246.84
2022-10-25T20:31:33.072Z,98240.63
2022-10-25T20:33:47.180Z,98231.47
2022-10-25T20:36:06.875Z,98239.94
2022-10-25T20:38:17.854Z,98238.47
2022-10-25T20:40:26.143Z,98238.59
2022-10-25T20:42:29.154Z,98238.47
2022-10-25T20:44:32.191Z,98242.09
2022-10-25T20:46:36.253Z,98239.47
2022-10-25T20:48:39.280Z,98239.47
2022-10-25T20:50:46.060Z,98242.91
2022-10-25T20:53:09.206Z,98235.97
2022-10-25T20:55:14.231Z,98239.56
2022-10-25T20:57:17.238Z,98233.47
2022-10-25T20:59:20.329Z,98228.38
2022-10-25T21:01:23.440Z,98238.13
2022-10-25T21:03:27.754Z,98242.66
2022-10-25T21:05:31.509Z,98235.88
2022-10-25T21:07:34.662Z,98232.53
2022-10-25T21:09:37.708Z,98237.78
2022-10-25T21:11:42.123Z,98229.91
2022-10-25T21:13:45.232Z,98233.47
2022-10-25T21:15:48.494Z,98227.53
2022-10-25T21:17:51.683Z,98227.66
2022-10-25T21:19:54.925Z,98226.09
2022-10-25T21:21:58.134Z,98215.63
2022-10-25T21:24:02.632Z,98223.59
2022-10-25T21:26:07.675Z,98223.72
2022-10-25T21:28:12.360Z,98222.06
2022-10-25T21:30:15.797Z,98214.31
2022-10-25T21:32:19.508Z,98216.09
2022-10-25T21:34:22.534Z,98209.19
2022-10-25T21:36:25.584Z,98210.13
2022-10-25T21:38:28.533Z,98202.63
2022-10-25T21:40:31.603Z,98206.94
2022-10-25T21:42:34.868Z,98203.56
2022-10-25T21:44:39.224Z,98204.53
2022-10-25T21:46:42.632Z,98201.19
2022-10-25T21:48:47.232Z,98202.97
2022-10-25T21:50:55.042Z,98193.44
2022-10-25T21:52:58.165Z,98197.88
2022-10-25T21:55:01.363Z,98203.22
2022-10-25T21:57:04.456Z,98207.50
2022-10-25T21:59:07.728Z,98202.50
2022-10-25T22:01:13.499Z,98190.25
2022-10-25T22:03:16.788Z,98193.91
2022-10-25T22:05:19.924Z,98193.09
2022-10-25T22:07:23.391Z,98192.28
2022-10-25T22:09:26.544Z,98206.19
2022-10-25T22:11:31.967Z,98203.56
2022-10-25T22:13:35.289Z,98195.81
2022-10-25T22:15:38.306Z,98202.75
2022-10-25T22:17:42.732Z,98204.38
2022-10-25T22:19:45.690Z,98194.03
2022-10-25T22:21:50.506Z,98180.00
2022-10-25T22:23:53.666Z,98172.03
2022-10-25T22:26:00.828Z,98172.75
2022-10-25T22:28:03.860Z,98176.22
2022-10-25T22:30:07.946Z,98185.94
2022-10-25T22:32:10.892Z,98174.78
2022-10-25T22:34:16.424Z,98176.56
2022-10-25T22:36:21.595Z,98172.25
2022-10-25T22:38:25.100Z,98177.97
2022-10-25T22:40:28.124Z,98174.53
2022-10-25T22:42:31.093Z,98191.06
2022-10-25T22:44:34.067Z,98187.50
2022-10-25T22:46:37.555Z,98186.44
2022-10-25T22:48:42.220Z,98180.97
2022-10-25T22:50:50.728Z,98195.59
2022-10-25T22:52:53.802Z,98184.31
2022-10-25T22:54:56.792Z,98178.00
2022-10-25T22:56:59.819Z,98182.03
2022-10-25T22:59:05.350Z,98166.22
2022-10-25T23:01:10.403Z,98170.38
2022-10-25T23:03:13.578Z,98181.56
2022-10-25T23:05:16.732Z,98188.59
2022-10-25T23:07:21.154Z,98177.19
2022-10-25T23:09:24.222Z,98166.59
2022-10-25T23:11:28.998Z,98157.75
2022-10-25T23:13:32.959Z,98156.81
2022-10-25T23:15:35.938Z,98151.47
2022-10-25T23:17:39.011Z,98156.81
2022-10-25T23:19:41.984Z,98168.00
2022-10-25T23:21:45.090Z,98176.94
2022-10-25T23:23:49.456Z,98161.09
2022-10-25T23:25:52.965Z,98157.53
2022-10-25T23:27:56.145Z,98163.59
2022-10-25T23:29:59.137Z,98160.84
2022-10-25T23:32:02.190Z,98147.75
2022-10-25T23:34:05.167Z,98142.38
2022-10-25T23:36:10.167Z,98138.81
2022-10-25T23:38:13.677Z,98131.78
2022-10-25T23:40:18.049Z,98139.66
2022-10-25T23:42:21.155Z,98141.44
2022-10-25T23:44:24.595Z,98135.38
2022-10-25T23:46:27.628Z,98143.13
2022-10-25T23:48:30.862Z,98156.22
2022-10-25T23:50:33.972Z,98168.47
2022-10-25T23:52:37.084Z,98176.31
2022-10-25T23:54:40.041Z,98178.00
2022-10-25T23:56:44.347Z,98170.03
2022-10-25T23:58:50.365Z,98177.75
